createdAt,value
2019-03-18T00:01:38.876Z,-2.04
2019-03-18T00:04:10.855Z,-2.06
2019-03-18T00:06:42.702Z,-2.09
2019-03-18T00:09:14.458Z,-2.13
2019-03-18T00:11:46.328Z,-2.16
2019-03-18T00:14:18.085Z,-2.20
2019-03-18T00:16:49.666Z,-2.22
2019-03-18T00:19:22.188Z,-2.22
2019-03-18T00:21:54.073Z,-2.22
2019-03-18T00:24:25.818Z,-2.23
2019-03-18T00:26:57.593Z,-2.25
2019-03-18T00:29:29.622Z,-2.26
2019-03-18T00:32:01.614Z,-2.29
2019-03-18T00:34:33.285Z,-2.30
2019-03-18T00:37:04.879Z,-2.30
2019-03-18T00:39:36.700Z,-2.34
2019-03-18T00:42:08.247Z,-2.36
2019-03-18T00:44:40.015Z,-2.38
2019-03-18T00:47:11.775Z,-2.41
2019-03-18T00:49:43.540Z,-2.43
2019-03-18T00:52:16.525Z,-2.45
2019-03-18T00:54:48.270Z,-2.46
2019-03-18T00:57:20.359Z,-2.47
2019-03-18T00:59:52.207Z,-2.49
2019-03-18T01:02:25.094Z,-2.50
2019-03-18T01:04:56.549Z,-2.53
2019-03-18T01:07:28.314Z,-2.53
2019-03-18T01:10:00.068Z,-2.53
2019-03-18T01:12:31.705Z,-2.52
2019-03-18T01:15:03.564Z,-2.52
2019-03-18T01:17:36.060Z,-2.57
2019-03-18T01:20:10.175Z,-2.59
2019-03-18T01:22:41.614Z,-2.63
2019-03-18T01:25:13.384Z,-2.65
2019-03-18T01:27:45.123Z,-2.66
2019-03-18T01:30:16.684Z,-2.67
2019-03-18T01:32:48.545Z,-2.67
2019-03-18T01:35:20.215Z,-2.71
2019-03-18T01:37:51.776Z,-2.73
2019-03-18T01:40:23.535Z,-2.77
2019-03-18T01:42:55.308Z,-2.81
2019-03-18T01:45:39.787Z,-2.83
2019-03-18T01:48:00.118Z,-2.83
2019-03-18T01:50:32.010Z,-2.83
2019-03-18T01:53:03.977Z,-2.83
2019-03-18T01:55:35.525Z,-2.86
2019-03-18T01:58:07.384Z,-2.88
2019-03-18T02:00:39.036Z,-2.91
2019-03-18T02:03:10.691Z,-2.93
2019-03-18T02:05:42.569Z,-2.96
2019-03-18T02:08:14.220Z,-2.98
2019-03-18T02:10:45.867Z,-2.99
2019-03-18T02:13:17.535Z,-3.04
2019-03-18T02:15:53.581Z,-3.08
2019-03-18T02:18:22.501Z,-3.06
2019-03-18T02:20:54.057Z,-3.09
2019-03-18T02:23:25.793Z,-3.09
2019-03-18T02:25:57.533Z,-3.12
2019-03-18T02:28:29.332Z,-3.13
2019-03-18T02:31:01.088Z,-3.08
2019-03-18T02:33:32.641Z,-3.10
2019-03-18T02:36:04.503Z,-3.11
2019-03-18T02:38:36.141Z,-3.10
2019-03-18T02:41:07.702Z,-3.09
2019-03-18T02:43:39.369Z,-3.09
2019-03-18T02:46:11.267Z,-3.10
2019-03-18T02:48:42.700Z,-3.15
2019-03-18T02:51:14.451Z,-3.20
2019-03-18T02:53:46.014Z,-3.27
2019-03-18T02:56:17.670Z,-3.30
2019-03-18T02:58:49.489Z,-3.32
2019-03-18T03:01:21.381Z,-3.33
2019-03-18T03:03:52.834Z,-3.33
2019-03-18T03:06:24.605Z,-3.32
2019-03-18T03:08:56.268Z,-3.31
2019-03-18T03:11:28.011Z,-3.27
2019-03-18T03:13:59.778Z,-3.26
2019-03-18T03:16:31.434Z,-3.25
2019-03-18T03:19:03.404Z,-3.23
2019-03-18T03:21:35.092Z,-3.24
2019-03-18T03:24:07.008Z,-3.21
2019-03-18T03:26:38.575Z,-3.20
2019-03-18T03:29:10.335Z,-3.20
2019-03-18T03:31:42.081Z,-3.19
2019-03-18T03:34:14.550Z,-3.22
2019-03-18T03:36:46.243Z,-3.24
2019-03-18T03:39:17.893Z,-3.27
2019-03-18T03:41:49.548Z,-3.29
2019-03-18T03:44:21.397Z,-3.34
2019-03-18T03:46:52.962Z,-3.37
2019-03-18T03:49:24.725Z,-3.36
2019-03-18T03:51:56.381Z,-3.38
2019-03-18T03:54:28.135Z,-3.42
2019-03-18T03:56:59.609Z,-3.43
2019-03-18T03:59:31.463Z,-3.44
2019-03-18T04:02:03.022Z,-3.44
2019-03-18T04:04:34.881Z,-3.40
2019-03-18T04:07:06.633Z,-3.38
2019-03-18T04:09:38.496Z,-3.37
2019-03-18T04:12:10.265Z,-3.34
2019-03-18T04:14:41.806Z,-3.30
2019-03-18T04:17:14.801Z,-3.28
2019-03-18T04:19:46.763Z,-3.23
2019-03-18T04:22:18.198Z,-3.18
2019-03-18T04:24:49.971Z,-3.16
2019-03-18T04:27:24.622Z,-3.09
2019-03-18T04:29:54.929Z,-3.05
2019-03-18T04:32:26.695Z,-3.03
2019-03-18T04:34:58.347Z,-3.01
2019-03-18T04:37:30.109Z,-2.98
2019-03-18T04:40:01.950Z,-2.95
2019-03-18T04:42:34.549Z,-2.87
2019-03-18T04:45:07.690Z,-2.85
2019-03-18T04:47:39.081Z,-2.81
2019-03-18T04:50:11.954Z,-2.72
2019-03-18T04:52:43.429Z,-2.67
2019-03-18T04:55:15.168Z,-2.60
2019-03-18T04:57:46.818Z,-2.51
2019-03-18T05:00:18.503Z,-2.43
2019-03-18T05:02:50.260Z,-2.33
2019-03-18T05:05:21.914Z,-2.20
2019-03-18T05:07:53.769Z,-2.08
2019-03-18T05:10:25.423Z,-1.94
2019-03-18T05:12:56.971Z,-1.80
2019-03-18T05:15:28.831Z,-1.65
2019-03-18T05:18:00.608Z,-1.51
2019-03-18T05:20:32.174Z,-1.38
2019-03-18T05:23:04.027Z,-1.26
2019-03-18T05:25:38.632Z,-1.15
2019-03-18T05:28:10.205Z,-1.04
2019-03-18T05:30:41.872Z,-0.92
2019-03-18T05:33:13.632Z,-0.82
2019-03-18T05:35:45.110Z,-0.73
2019-03-18T05:38:16.834Z,-0.66
2019-03-18T05:40:48.495Z,-0.56
2019-03-18T05:43:20.150Z,-0.46
2019-03-18T05:45:51.993Z,-0.37
2019-03-18T05:48:23.651Z,-0.26
2019-03-18T05:50:55.325Z,-0.13
2019-03-18T05:53:26.988Z,-0.01
2019-03-18T05:55:58.652Z,0.20
2019-03-18T05:58:30.505Z,0.41
2019-03-18T06:01:02.165Z,0.51
2019-03-18T06:03:33.716Z,0.62
2019-03-18T06:06:05.685Z,0.72
2019-03-18T06:08:37.521Z,0.81
2019-03-18T06:11:09.204Z,0.93
2019-03-18T06:13:40.958Z,1.15
2019-03-18T06:16:12.820Z,1.29
2019-03-18T06:18:44.468Z,1.42
2019-03-18T06:21:16.138Z,1.52
2019-03-18T06:23:47.811Z,1.63
2019-03-18T06:26:19.341Z,1.76
2019-03-18T06:28:51.186Z,1.90
2019-03-18T06:31:22.906Z,2.06
2019-03-18T06:33:54.523Z,2.18
2019-03-18T06:36:27.603Z,2.34
2019-03-18T06:38:59.278Z,2.54
2019-03-18T06:41:31.006Z,2.70
2019-03-18T06:44:02.683Z,2.90
2019-03-18T06:46:34.350Z,3.08
2019-03-18T06:49:06.201Z,3.27
2019-03-18T06:51:37.660Z,3.49
2019-03-18T06:54:09.501Z,3.66
2019-03-18T06:56:41.380Z,3.90
2019-03-18T06:59:13.038Z,4.12
2019-03-18T07:01:44.350Z,4.31
2019-03-18T07:04:16.152Z,4.53
2019-03-18T07:06:48.000Z,4.73
2019-03-18T07:09:19.668Z,4.92
2019-03-18T07:11:51.938Z,5.13
2019-03-18T07:14:23.286Z,5.42
2019-03-18T07:16:54.940Z,5.58
2019-03-18T07:19:26.712Z,5.74
2019-03-18T07:21:58.231Z,5.92
2019-03-18T07:24:30.165Z,6.17
2019-03-18T07:27:02.282Z,6.29
2019-03-18T07:29:33.944Z,6.45
2019-03-18T07:32:05.787Z,6.64
2019-03-18T07:34:37.440Z,6.78
2019-03-18T07:37:08.919Z,6.86
2019-03-18T07:39:40.718Z,7.05
2019-03-18T07:42:12.533Z,7.24
2019-03-18T07:44:44.386Z,7.43
2019-03-18T07:47:16.031Z,7.58
2019-03-18T07:49:48.511Z,7.70
2019-03-18T07:52:21.878Z,7.80
2019-03-18T07:54:53.383Z,7.95
2019-03-18T07:57:24.933Z,8.09
2019-03-18T07:59:56.796Z,8.23
2019-03-18T08:02:28.367Z,8.36
2019-03-18T08:05:00.384Z,8.47
2019-03-18T08:07:31.854Z,8.56
2019-03-18T08:10:03.318Z,8.66
2019-03-18T08:12:34.959Z,8.76
2019-03-18T08:15:08.878Z,8.86
2019-03-18T08:17:40.639Z,8.93
2019-03-18T08:20:12.979Z,8.98
2019-03-18T08:22:44.372Z,9.13
2019-03-18T08:25:15.822Z,9.16
2019-03-18T08:27:47.573Z,9.19
2019-03-18T08:30:22.314Z,9.23
2019-03-18T08:32:54.181Z,9.28
2019-03-18T08:35:25.943Z,9.35
2019-03-18T08:37:57.578Z,9.43
2019-03-18T08:40:29.455Z,9.49
2019-03-18T08:43:01.112Z,9.60
2019-03-18T08:45:32.984Z,9.66
2019-03-18T08:48:04.620Z,9.71
2019-03-18T08:50:36.093Z,9.77
2019-03-18T08:53:08.467Z,9.83
2019-03-18T08:55:39.998Z,9.87
2019-03-18T08:58:11.457Z,9.90
2019-03-18T09:00:43.026Z,9.95
2019-03-18T09:03:14.871Z,9.89
2019-03-18T09:05:46.546Z,9.90
2019-03-18T09:08:18.202Z,9.87
2019-03-18T09:10:49.962Z,9.90
2019-03-18T09:13:21.624Z,9.97
2019-03-18T09:15:53.180Z,9.99
2019-03-18T09:18:24.936Z,10.05
2019-03-18T09:20:56.574Z,10.24
2019-03-18T09:23:28.145Z,10.41
2019-03-18T09:25:59.680Z,10.47
2019-03-18T09:28:31.541Z,10.56
2019-03-18T09:31:03.100Z,10.58
2019-03-18T09:33:34.990Z,10.64
2019-03-18T09:36:06.617Z,10.72
2019-03-18T09:38:38.088Z,10.72
2019-03-18T09:41:09.549Z,10.74
2019-03-18T09:43:41.198Z,10.70
2019-03-18T09:46:12.851Z,10.71
2019-03-18T09:48:44.485Z,10.75
2019-03-18T09:51:16.269Z,10.82
2019-03-18T09:53:47.831Z,10.93
2019-03-18T09:56:19.690Z,10.97
2019-03-18T09:58:51.347Z,10.94
2019-03-18T10:01:22.898Z,11.02
2019-03-18T10:03:54.657Z,11.05
2019-03-18T10:06:26.312Z,11.13
2019-03-18T10:08:58.061Z,11.21
2019-03-18T10:11:29.837Z,11.32
2019-03-18T10:14:01.695Z,11.44
2019-03-18T10:16:33.470Z,11.54
2019-03-18T10:19:05.125Z,11.50
2019-03-18T10:21:36.984Z,11.54
2019-03-18T10:24:08.535Z,11.57
2019-03-18T10:26:40.094Z,11.58
2019-03-18T10:29:11.858Z,11.55
2019-03-18T10:31:43.394Z,11.60
2019-03-18T10:34:15.272Z,11.61
2019-03-18T10:36:46.928Z,11.69
2019-03-18T10:39:18.600Z,11.76
2019-03-18T10:41:50.450Z,11.73
2019-03-18T10:44:22.192Z,11.78
2019-03-18T10:46:53.851Z,11.81
2019-03-18T10:49:25.630Z,11.82
2019-03-18T10:51:57.291Z,11.88
2019-03-18T10:54:31.107Z,11.91
2019-03-18T10:57:02.344Z,11.96
2019-03-18T10:59:34.003Z,12.03
2019-03-18T11:02:05.640Z,12.16
2019-03-18T11:04:37.417Z,12.18
2019-03-18T11:07:09.073Z,12.22
2019-03-18T11:09:40.840Z,12.22
2019-03-18T11:12:12.479Z,12.18
2019-03-18T11:14:43.930Z,12.22
2019-03-18T11:17:15.401Z,12.28
2019-03-18T11:19:57.919Z,12.23
2019-03-18T11:22:20.441Z,12.30
2019-03-18T11:24:52.322Z,12.31
2019-03-18T11:27:23.974Z,12.32
2019-03-18T11:29:55.941Z,12.38
2019-03-18T11:32:27.608Z,12.45
2019-03-18T11:34:59.245Z,12.47
2019-03-18T11:37:31.130Z,12.52
2019-03-18T11:40:02.889Z,12.54
2019-03-18T11:42:34.447Z,12.66
2019-03-18T11:45:09.804Z,12.76
2019-03-18T11:47:41.222Z,12.76
2019-03-18T11:50:18.412Z,12.77
2019-03-18T11:52:49.874Z,12.76
2019-03-18T11:55:25.819Z,12.75
2019-03-18T11:57:57.295Z,12.77
2019-03-18T12:00:29.043Z,12.78
2019-03-18T12:03:00.696Z,12.88
2019-03-18T12:05:32.248Z,12.89
2019-03-18T12:08:03.905Z,12.91
2019-03-18T12:10:35.582Z,12.95
2019-03-18T12:13:07.134Z,12.98
2019-03-18T12:15:39.013Z,13.00
2019-03-18T12:18:10.661Z,13.02
2019-03-18T12:20:42.401Z,13.06
2019-03-18T12:23:14.176Z,13.15
2019-03-18T12:25:45.823Z,13.14
2019-03-18T12:28:17.494Z,13.15
2019-03-18T12:30:52.738Z,13.16
2019-03-18T12:33:24.474Z,13.10
2019-03-18T12:35:56.239Z,13.09
2019-03-18T12:38:27.589Z,13.07
2019-03-18T12:40:59.154Z,13.15
2019-03-18T12:43:30.913Z,13.17
2019-03-18T12:46:02.561Z,13.14
2019-03-18T12:48:34.413Z,13.16
2019-03-18T12:51:06.304Z,13.25
2019-03-18T12:53:38.272Z,13.27
2019-03-18T12:56:09.897Z,13.28
2019-03-18T12:58:41.787Z,13.29
2019-03-18T13:01:13.542Z,13.33
2019-03-18T13:03:45.214Z,13.32
2019-03-18T13:06:17.057Z,13.35
2019-03-18T13:08:48.674Z,13.33
2019-03-18T13:11:20.464Z,13.33
2019-03-18T13:13:53.476Z,13.37
2019-03-18T13:16:25.237Z,13.43
2019-03-18T13:18:57.078Z,13.39
2019-03-18T13:21:30.849Z,13.37
2019-03-18T13:24:01.949Z,13.36
2019-03-18T13:26:33.402Z,13.35
2019-03-18T13:29:06.697Z,13.32
2019-03-18T13:31:38.642Z,13.30
2019-03-18T13:34:10.464Z,13.22
2019-03-18T13:36:41.873Z,13.19
2019-03-18T13:39:13.739Z,13.19
2019-03-18T13:41:45.499Z,13.17
2019-03-18T13:44:17.152Z,13.13
2019-03-18T13:46:48.591Z,13.11
2019-03-18T13:49:20.073Z,13.06
2019-03-18T13:51:52.546Z,12.99
2019-03-18T13:54:23.978Z,12.89
2019-03-18T13:56:55.626Z,12.82
2019-03-18T13:59:27.514Z,12.77
2019-03-18T14:01:59.050Z,12.68
2019-03-18T14:04:30.813Z,12.60
2019-03-18T14:07:02.491Z,12.51
2019-03-18T14:09:34.143Z,12.48
2019-03-18T14:12:05.890Z,12.41
2019-03-18T14:14:37.444Z,12.36
2019-03-18T14:17:09.425Z,12.32
2019-03-18T14:19:41.164Z,12.28
2019-03-18T14:22:13.026Z,12.22
2019-03-18T14:24:44.681Z,12.15
2019-03-18T14:27:16.244Z,12.07
2019-03-18T14:29:48.014Z,11.99
2019-03-18T14:32:20.283Z,11.95
2019-03-18T14:34:52.039Z,11.89
2019-03-18T14:37:23.685Z,11.81
2019-03-18T14:39:55.159Z,11.74
2019-03-18T14:42:27.010Z,11.69
2019-03-18T14:44:58.675Z,11.61
2019-03-18T14:47:30.232Z,11.53
2019-03-18T14:50:01.977Z,11.46
2019-03-18T14:52:33.545Z,11.45
2019-03-18T14:55:10.075Z,11.37
2019-03-18T14:57:41.147Z,11.35
2019-03-18T15:00:17.949Z,11.22
2019-03-18T15:02:49.394Z,11.12
2019-03-18T15:05:21.152Z,11.02
2019-03-18T15:07:52.810Z,10.93
2019-03-18T15:10:27.131Z,10.84
2019-03-18T15:12:58.198Z,10.73
2019-03-18T15:15:29.511Z,10.66
2019-03-18T15:18:01.392Z,10.52
2019-03-18T15:20:33.047Z,10.39
2019-03-18T15:23:04.908Z,10.31
2019-03-18T15:25:36.880Z,10.15
2019-03-18T15:28:08.328Z,10.03
2019-03-18T15:30:41.093Z,9.89
2019-03-18T15:33:12.654Z,9.79
2019-03-18T15:35:44.223Z,9.66
2019-03-18T15:38:16.906Z,9.50
2019-03-18T15:40:48.665Z,9.36
2019-03-18T15:43:20.230Z,9.23
2019-03-18T15:45:51.757Z,9.08
2019-03-18T15:48:23.425Z,8.90
2019-03-18T15:50:55.207Z,8.73
2019-03-18T15:53:26.682Z,8.61
2019-03-18T15:55:58.418Z,8.45
2019-03-18T15:58:30.172Z,8.29
2019-03-18T16:01:01.943Z,8.13
2019-03-18T16:03:33.683Z,8.03
2019-03-18T16:06:05.457Z,7.90
2019-03-18T16:08:37.117Z,7.78
2019-03-18T16:11:08.775Z,7.69
2019-03-18T16:13:40.533Z,7.56
2019-03-18T16:16:12.391Z,7.44
2019-03-18T16:18:44.056Z,7.33
2019-03-18T16:21:15.902Z,7.22
2019-03-18T16:23:47.566Z,7.14
2019-03-18T16:26:19.233Z,7.07
2019-03-18T16:28:50.965Z,6.96
2019-03-18T16:31:22.762Z,6.86
2019-03-18T16:33:54.393Z,6.80
2019-03-18T16:36:26.179Z,6.71
2019-03-18T16:38:57.704Z,6.61
2019-03-18T16:41:29.587Z,6.55
2019-03-18T16:44:01.288Z,6.51
2019-03-18T16:46:32.686Z,6.46
2019-03-18T16:49:04.545Z,6.41
2019-03-18T16:51:36.198Z,6.35
2019-03-18T16:54:07.875Z,6.28
2019-03-18T16:56:39.426Z,6.24
2019-03-18T16:59:11.275Z,6.20
2019-03-18T17:01:42.840Z,6.14
2019-03-18T17:04:14.482Z,6.11
2019-03-18T17:06:46.158Z,6.07
2019-03-18T17:09:19.145Z,6.02
2019-03-18T17:11:50.601Z,5.97
2019-03-18T17:14:22.236Z,5.92
2019-03-18T17:16:53.814Z,5.87
2019-03-18T17:19:25.390Z,5.84
2019-03-18T17:22:02.763Z,5.84
2019-03-18T17:24:34.962Z,5.87
2019-03-18T17:27:06.684Z,5.85
2019-03-18T17:29:38.185Z,5.84
2019-03-18T17:32:09.712Z,5.82
2019-03-18T17:34:42.221Z,5.78
2019-03-18T17:37:14.343Z,5.72
2019-03-18T17:39:46.616Z,5.67
2019-03-18T17:42:18.164Z,5.73
2019-03-18T17:44:50.672Z,5.70
2019-03-18T17:47:22.483Z,5.66
2019-03-18T17:49:54.712Z,5.62
2019-03-18T17:52:26.793Z,5.62
2019-03-18T17:54:58.990Z,5.59
2019-03-18T17:57:32.680Z,5.56
2019-03-18T18:00:07.446Z,5.58
2019-03-18T18:02:39.798Z,5.58
2019-03-18T18:05:11.486Z,5.61
2019-03-18T18:07:42.835Z,5.61
2019-03-18T18:10:14.683Z,5.64
2019-03-18T18:12:46.545Z,5.68
2019-03-18T18:15:18.302Z,5.68
2019-03-18T18:17:49.859Z,5.69
2019-03-18T18:20:21.591Z,5.72
2019-03-18T18:22:53.264Z,5.71
2019-03-18T18:25:25.129Z,5.72
2019-03-18T18:27:56.785Z,5.74
2019-03-18T18:30:28.426Z,5.73
2019-03-18T18:33:01.225Z,5.71
2019-03-18T18:35:32.676Z,5.73
2019-03-18T18:38:04.338Z,5.70
2019-03-18T18:40:35.799Z,5.70
2019-03-18T18:43:09.167Z,5.70
2019-03-18T18:45:40.646Z,5.72
2019-03-18T18:48:12.071Z,5.74
2019-03-18T18:50:43.851Z,5.74
2019-03-18T18:53:25.731Z,5.70
2019-03-18T18:55:49.086Z,5.76
2019-03-18T18:58:21.588Z,5.74
2019-03-18T19:00:53.445Z,5.71
2019-03-18T19:03:24.973Z,5.70
2019-03-18T19:05:56.544Z,5.73
2019-03-18T19:08:27.984Z,5.68
2019-03-18T19:10:59.544Z,5.68
2019-03-18T19:13:31.302Z,5.69
2019-03-18T19:16:03.073Z,5.62
2019-03-18T19:18:38.040Z,5.55
2019-03-18T19:21:08.133Z,5.52
2019-03-18T19:23:39.774Z,5.44
2019-03-18T19:26:11.233Z,5.41
2019-03-18T19:28:42.792Z,5.38
2019-03-18T19:31:14.344Z,5.35
2019-03-18T19:33:45.798Z,5.30
2019-03-18T19:36:17.560Z,5.23
2019-03-18T19:38:49.110Z,5.22
2019-03-18T19:41:20.668Z,5.22
2019-03-18T19:43:51.994Z,5.20
2019-03-18T19:46:23.674Z,5.18
2019-03-18T19:48:55.333Z,5.16
2019-03-18T19:51:26.974Z,5.15
2019-03-18T19:53:59.463Z,5.12
2019-03-18T19:56:31.104Z,5.11
2019-03-18T19:59:02.884Z,5.03
2019-03-18T20:01:34.412Z,4.97
2019-03-18T20:04:05.987Z,4.97
2019-03-18T20:06:37.779Z,4.97
2019-03-18T20:09:09.516Z,4.92
2019-03-18T20:11:41.272Z,4.86
2019-03-18T20:14:13.029Z,4.84
2019-03-18T20:16:45.603Z,4.76
2019-03-18T20:19:17.344Z,4.74
2019-03-18T20:21:49.220Z,4.64
2019-03-18T20:24:20.779Z,4.63
2019-03-18T20:26:52.465Z,4.57
2019-03-18T20:29:23.997Z,4.53
2019-03-18T20:31:55.838Z,4.45
2019-03-18T20:34:27.590Z,4.38
2019-03-18T20:36:59.366Z,4.30
2019-03-18T20:39:31.109Z,4.28
2019-03-18T20:42:03.419Z,4.26
2019-03-18T20:44:34.849Z,4.22
2019-03-18T20:47:06.567Z,4.23
2019-03-18T20:49:41.682Z,4.33
2019-03-18T20:52:16.996Z,4.36
2019-03-18T20:54:49.256Z,4.34
2019-03-18T20:57:20.632Z,4.38
2019-03-18T20:59:52.512Z,4.36
2019-03-18T21:02:24.223Z,4.31
2019-03-18T21:04:55.983Z,4.27
2019-03-18T21:07:27.618Z,4.22
2019-03-18T21:09:59.290Z,4.19
2019-03-18T21:12:31.228Z,4.12
2019-03-18T21:15:02.687Z,4.04
2019-03-18T21:17:34.362Z,3.97
2019-03-18T21:20:19.111Z,3.88
2019-03-18T21:22:50.729Z,3.80
2019-03-18T21:25:22.739Z,3.73
2019-03-18T21:27:54.217Z,3.63
2019-03-18T21:30:26.043Z,3.54
2019-03-18T21:32:57.668Z,3.51
2019-03-18T21:35:29.168Z,3.46
2019-03-18T21:38:00.963Z,3.49
2019-03-18T21:40:32.671Z,3.48
2019-03-18T21:43:04.323Z,3.51
2019-03-18T21:45:35.990Z,3.46
2019-03-18T21:48:07.334Z,3.48
2019-03-18T21:50:39.232Z,3.46
2019-03-18T21:53:11.040Z,3.39
2019-03-18T21:55:43.655Z,3.27
2019-03-18T21:58:15.100Z,3.13
2019-03-18T22:00:46.941Z,3.01
2019-03-18T22:03:18.426Z,2.84
2019-03-18T22:05:50.051Z,2.70
2019-03-18T22:08:23.319Z,2.60
2019-03-18T22:10:55.642Z,2.52
2019-03-18T22:13:27.090Z,2.45
2019-03-18T22:15:58.747Z,2.42
2019-03-18T22:18:30.410Z,2.36
2019-03-18T22:21:02.169Z,2.36
2019-03-18T22:23:33.488Z,2.36
2019-03-18T22:26:05.373Z,2.34
2019-03-18T22:28:36.930Z,2.34
2019-03-18T22:31:08.796Z,2.24
2019-03-18T22:33:42.198Z,2.20
2019-03-18T22:36:13.626Z,2.14
2019-03-18T22:38:45.621Z,2.10
2019-03-18T22:41:17.059Z,2.04
2019-03-18T22:43:48.607Z,1.98
2019-03-18T22:46:20.178Z,1.99
2019-03-18T22:48:51.603Z,1.97
2019-03-18T22:51:23.261Z,1.97
2019-03-18T22:53:55.021Z,1.98
2019-03-18T22:56:27.700Z,1.92
2019-03-18T22:58:59.364Z,1.92
2019-03-18T23:01:30.920Z,1.91
2019-03-18T23:04:02.684Z,1.95
2019-03-18T23:06:34.250Z,2.02
2019-03-18T23:09:06.828Z,1.97
2019-03-18T23:11:38.384Z,2.01
2019-03-18T23:14:10.161Z,1.99
2019-03-18T23:16:41.907Z,2.00
2019-03-18T23:19:13.545Z,2.05
2019-03-18T23:21:45.416Z,2.06
2019-03-18T23:24:16.963Z,1.98
2019-03-18T23:26:48.519Z,1.96
2019-03-18T23:29:20.300Z,1.93
2019-03-18T23:31:52.071Z,1.93
2019-03-18T23:34:23.509Z,1.85
2019-03-18T23:36:55.377Z,1.80
2019-03-18T23:39:27.036Z,1.67
2019-03-18T23:41:58.681Z,1.58
2019-03-18T23:44:30.453Z,1.52
2019-03-18T23:47:01.988Z,1.43
2019-03-18T23:49:33.766Z,1.33
2019-03-18T23:52:05.422Z,1.29
2019-03-18T23:54:36.978Z,1.27
2019-03-18T23:57:08.829Z,1.22
2019-03-18T23:59:40.380Z,1.23
